PGRO/ROP METAR and TAF weather

Enter ICAO airport designator
Station Type Date Time Source
PGRO METAR 2021/09/23 23:50 UTC NOAA

PGRO 232350Z 13015G19KT 7SM BKN014 BKN090 OVC100 27/23 A2981


Station Type Date Time Source
PGRO Decoded METAR 2021/09/23 23:50 UTC NOAA

Rota Island, N. Mariana Is, Rota International Airport, GU, United States (PGRO) 14-11N 145-15E
Sep 23, 2021 - 07:50 PM EDT / 2021.09.23 2350 UTC
Wind: from the SE (130 degrees) at 17 MPH (15 KT) gusting to 22 MPH (19 KT):0
Visibility: 7 mile(s):0
Sky conditions: overcast
Temperature: 80 F (27 C)
Dew Point: 73 F (23 C)
Relative Humidity: 78%
Pressure (altimeter): 29.81 in. Hg (1009 hPa)
ob: PGRO 232350Z 13015G19KT 7SM BKN014 BKN090 OVC100 27/23 A2981
cycle: 0

Station Type Date Time Source
PGRO TAF 2021/09/23 21:57 UTC NOAA

TAF PGRO 232054Z 2321/2418 11015KT P6SM -SHRA SCT015 BKN060 OVC100
TEMPO 2321/2401 10015G20KT 3SM SHRA BKN015
FM240500 06015KT P6SM VCSH SCT015 BKN120 OVC300

Example: see airport list